Time;durP1;ratioP1;P1;durP2;ratioP2;P2;SDS_P1;SDS_P2;PMS_P1;PMS_P2;Temp;Humidity;BMP_temperature;BMP_pressure;BME280_temperature;BME280_humidity;BME280_pressure;Samples;Min_cycle;Max_cycle;Signal;HPM_P1;HPM_P2
2023/08/25 00:02:09;;;;;;;0.00;0.00;;;;;;;;;;5117094;27;20035;-80
2023/08/25 00:04:35;;;;;;;0.00;0.00;;;;;;;;;;5117865;27;20027;-80
2023/08/25 00:07:01;;;;;;;0.00;0.00;;;;;;;;;;5136047;27;20058;-80
2023/08/25 00:09:26;;;;;;;0.00;0.00;;;;;;;;;;5134659;27;20031;-80
2023/08/25 00:11:51;;;;;;;0.00;0.00;;;;;;;;;;5134812;27;20383;-80
2023/08/25 00:14:17;;;;;;;0.00;0.00;;;;;;;;;;5134779;27;20444;-80
2023/08/25 00:16:42;;;;;;;0.00;0.00;;;;;;;;;;5134297;27;20483;-78
2023/08/25 00:19:08;;;;;;;0.00;0.00;;;;;;;;;;5117586;27;20027;-78
2023/08/25 00:21:33;;;;;;;0.00;0.00;;;;;;;;;;5135870;27;20027;-79
2023/08/25 00:23:58;;;;;;;0.00;0.00;;;;;;;;;;5135504;27;20466;-79
2023/08/25 00:26:24;;;;;;;0.00;0.00;;;;;;;;;;5134361;27;20031;-79
2023/08/25 00:28:49;;;;;;;0.00;0.00;;;;;;;;;;5135316;27;20047;-81
2023/08/25 00:31:15;;;;;;;0.00;0.00;;;;;;;;;;5116866;27;20424;-80
2023/08/25 00:33:50;;;;;;;0.00;0.00;;;;;;;;;;5135391;27;20024;-81
2023/08/25 00:36:16;;;;;;;0.00;0.00;;;;;;;;;;5134076;27;20464;-79
2023/08/25 00:38:42;;;;;;;0.00;0.00;;;;;;;;;;5117036;27;20034;-78
2023/08/25 00:41:08;;;;;;;0.00;0.00;;;;;;;;;;5134689;27;20432;-80
2023/08/25 00:43:34;;;;;;;0.00;0.00;;;;;;;;;;5117087;27;20528;-80
2023/08/25 00:46:00;;;;;;;0.00;0.00;;;;;;;;;;5135239;27;20026;-80
2023/08/25 00:48:26;;;;;;;0.00;0.00;;;;;;;;;;5117223;27;20122;-80
2023/08/25 00:50:51;;;;;;;0.00;0.00;;;;;;;;;;5117223;27;20027;-82
2023/08/25 00:53:17;;;;;;;0.00;0.00;;;;;;;;;;5134118;27;20353;-79
2023/08/25 00:55:42;;;;;;;0.00;0.00;;;;;;;;;;5116791;27;20019;-79
2023/08/25 00:58:07;;;;;;;0.00;0.00;;;;;;;;;;5116764;28;20023;-79
2023/08/25 01:00:33;;;;;;;0.00;0.00;;;;;;;;;;5117182;28;20118;-79
2023/08/25 01:03:00;;;;;;;0.00;0.00;;;;;;;;;;5135193;27;20038;-81
2023/08/25 01:05:26;;;;;;;0.00;0.00;;;;;;;;;;5133885;28;20440;-80
2023/08/25 01:07:51;;;;;;;0.00;0.00;;;;;;;;;;5134179;28;20027;-81
2023/08/25 01:10:16;;;;;;;0.00;0.00;;;;;;;;;;5133829;28;20035;-81
2023/08/25 01:12:54;;;;;;;0.00;0.00;;;;;;;;;;5133712;27;20047;-81
2023/08/25 01:15:29;;;;;;;0.00;0.00;;;;;;;;;;5121583;27;20050;-81
2023/08/25 01:18:02;;;;;;;0.00;0.00;;;;;;;;;;5104783;27;20035;-80
2023/08/25 01:20:28;;;;;;;0.00;0.00;;;;;;;;;;5121641;27;20027;-80
2023/08/25 01:23:18;;;;;;;0.00;0.00;;;;;;;;;;5103974;27;20027;-82
2023/08/25 01:25:45;;;;;;;0.00;0.00;;;;;;;;;;5138116;27;20042;-81
2023/08/25 01:28:11;;;;;;;0.00;0.00;;;;;;;;;;5120597;27;20039;-81
2023/08/25 01:30:36;;;;;;;0.00;0.00;;;;;;;;;;5138085;27;20364;-81
2023/08/25 01:33:05;;;;;;;0.00;0.00;;;;;;;;;;5138143;27;20126;-80
2023/08/25 01:35:43;;;;;;;0.00;0.00;;;;;;;;;;5138343;27;20031;-80
2023/08/25 01:38:15;;;;;;;0.00;0.00;;;;;;;;;;5138885;27;20030;-80
2023/08/25 01:40:44;;;;;;;0.00;0.00;;;;;;;;;;5120793;27;20437;-80
2023/08/25 01:43:11;;;;;;;0.00;0.00;;;;;;;;;;5120137;27;20066;-78
2023/08/25 01:45:36;;;;;;;0.00;0.00;;;;;;;;;;5121116;27;20049;-80
2023/08/25 01:48:04;;;;;;;0.00;0.00;;;;;;;;;;5137748;27;20511;-80
2023/08/25 01:50:29;;;;;;;0.00;0.00;;;;;;;;;;5120249;27;20145;-80
2023/08/25 01:52:55;;;;;;;0.00;0.00;;;;;;;;;;5137350;27;20051;-79
2023/08/25 01:55:20;;;;;;;0.00;0.00;;;;;;;;;;5138443;27;20463;-79
2023/08/25 01:57:46;;;;;;;0.00;0.00;;;;;;;;;;5119839;27;20033;-81
2023/08/25 02:00:12;;;;;;;0.00;0.00;;;;;;;;;;5138438;27;20076;-80
2023/08/25 02:02:37;;;;;;;0.00;0.00;;;;;;;;;;5138736;27;20035;-81
2023/08/25 02:05:03;;;;;;;0.00;0.00;;;;;;;;;;5136928;27;20422;-79
2023/08/25 02:07:28;;;;;;;0.00;0.00;;;;;;;;;;5136963;27;20446;-80
2023/08/25 02:09:55;;;;;;;0.00;0.00;;;;;;;;;;5138222;27;20031;-79
2023/08/25 02:12:20;;;;;;;0.00;0.00;;;;;;;;;;5119882;27;20062;-80
2023/08/25 02:14:46;;;;;;;0.00;0.00;;;;;;;;;;5136920;27;20054;-79
2023/08/25 02:17:11;;;;;;;0.00;0.00;;;;;;;;;;5119663;27;20035;-79
2023/08/25 02:19:37;;;;;;;0.00;0.00;;;;;;;;;;5119809;27;20019;-79
2023/08/25 02:22:03;;;;;;;0.00;0.00;;;;;;;;;;5138253;27;20151;-80
2023/08/25 02:24:30;;;;;;;0.00;0.00;;;;;;;;;;5102911;27;20030;-79
2023/08/25 02:26:55;;;;;;;0.00;0.00;;;;;;;;;;5137197;27;20038;-79
2023/08/25 02:29:21;;;;;;;0.00;0.00;;;;;;;;;;5136507;27;20039;-81
2023/08/25 02:31:47;;;;;;;0.00;0.00;;;;;;;;;;5136602;27;20023;-80
2023/08/25 02:34:12;;;;;;;0.00;0.00;;;;;;;;;;5136673;27;20368;-80
2023/08/25 02:36:39;;;;;;;0.38;0.00;;;;;;;;;;5138145;27;20444;-80
2023/08/25 02:39:05;;;;;;;0.00;0.00;;;;;;;;;;5136569;27;20038;-80
2023/08/25 02:41:30;;;;;;;0.00;0.00;;;;;;;;;;5119477;27;20039;-80
2023/08/25 02:43:55;;;;;;;0.00;0.00;;;;;;;;;;5137732;27;20338;-79
2023/08/25 02:46:21;;;;;;;0.00;0.00;;;;;;;;;;5136584;27;20031;-81
2023/08/25 02:48:46;;;;;;;0.00;0.00;;;;;;;;;;5137535;27;20038;-80
2023/08/25 02:51:12;;;;;;;0.00;0.00;;;;;;;;;;5137350;27;20031;-80
2023/08/25 02:53:37;;;;;;;0.00;0.00;;;;;;;;;;5137377;27;20038;-81
2023/08/25 02:56:03;;;;;;;0.00;0.00;;;;;;;;;;5136040;27;20035;-80
2023/08/25 02:58:28;;;;;;;0.00;0.00;;;;;;;;;;5136389;27;20031;-80
2023/08/25 03:00:54;;;;;;;0.00;0.00;;;;;;;;;;5136329;27;20039;-79
2023/08/25 03:03:19;;;;;;;0.00;0.00;;;;;;;;;;5119161;27;20091;-79
2023/08/25 03:05:44;;;;;;;0.00;0.00;;;;;;;;;;5135974;27;20027;-79
2023/08/25 03:08:15;;;;;;;0.00;0.00;;;;;;;;;;5119328;27;20158;-80
2023/08/25 03:10:43;;;;;;;0.00;0.00;;;;;;;;;;5136755;27;20023;-81
2023/08/25 03:13:08;;;;;;;0.00;0.00;;;;;;;;;;5118963;27;20080;-80
2023/08/25 03:15:35;;;;;;;0.00;0.00;;;;;;;;;;5136040;27;20035;-80
2023/08/25 03:18:00;;;;;;;0.00;0.00;;;;;;;;;;5118979;27;20066;-80
2023/08/25 03:20:26;;;;;;;0.00;0.00;;;;;;;;;;5137301;27;20027;-81
2023/08/25 03:22:52;;;;;;;0.00;0.00;;;;;;;;;;5136905;27;20432;-80
2023/08/25 03:25:18;;;;;;;0.00;0.00;;;;;;;;;;5136954;27;20383;-80
2023/08/25 03:27:43;;;;;;;0.00;0.00;;;;;;;;;;5136829;27;20043;-80
2023/08/25 03:30:10;;;;;;;0.00;0.00;;;;;;;;;;5135721;27;20446;-81
2023/08/25 03:32:35;;;;;;;0.00;0.00;;;;;;;;;;5135686;27;20031;-81
2023/08/25 03:35:01;;;;;;;0.00;0.00;;;;;;;;;;5118434;27;20019;-81
2023/08/25 03:37:26;;;;;;;0.00;0.00;;;;;;;;;;5117707;27;20341;-81
2023/08/25 03:39:52;;;;;;;0.00;0.00;;;;;;;;;;5136232;27;20409;-80
2023/08/25 03:42:17;;;;;;;0.00;0.00;;;;;;;;;;5117904;27;20440;-78
2023/08/25 03:44:44;;;;;;;0.00;0.00;;;;;;;;;;5136671;27;20528;-78
2023/08/25 03:47:10;;;;;;;0.00;0.00;;;;;;;;;;5136400;27;20068;-78
2023/08/25 03:49:35;;;;;;;0.00;0.00;;;;;;;;;;5136396;27;20102;-81
2023/08/25 03:52:01;;;;;;;0.00;0.00;;;;;;;;;;5136010;27;20467;-79
2023/08/25 03:54:31;;;;;;;0.00;0.00;;;;;;;;;;5134862;27;20023;-79
2023/08/25 03:56:56;;;;;;;;;;;;;;;;;;5135410;27;20019;-79
2023/08/25 03:59:21;;;;;;;0.00;0.00;;;;;;;;;;5136047;27;19993;-79
2023/08/25 04:01:47;;;;;;;0.00;0.00;;;;;;;;;;5134801;27;20146;-80
2023/08/25 04:04:12;;;;;;;0.00;0.00;;;;;;;;;;5135444;27;20030;-80
2023/08/25 04:06:38;;;;;;;0.00;0.00;;;;;;;;;;5136312;27;20359;-79
2023/08/25 04:09:03;;;;;;;0.00;0.00;;;;;;;;;;5135971;27;20019;-80
2023/08/25 04:11:28;;;;;;;0.00;0.00;;;;;;;;;;5134678;27;20019;-80
2023/08/25 04:13:54;;;;;;;0.00;0.00;;;;;;;;;;5117421;27;20031;-80
2023/08/25 04:16:19;;;;;;;0.00;0.00;;;;;;;;;;5136038;27;20027;-79
2023/08/25 04:18:45;;;;;;;0.00;0.00;;;;;;;;;;5134620;27;20448;-79
2023/08/25 04:21:10;;;;;;;0.00;0.00;;;;;;;;;;5135370;27;20027;-79
2023/08/25 04:23:36;;;;;;;0.00;0.00;;;;;;;;;;5117328;27;20056;-79
2023/08/25 04:26:01;;;;;;;0.00;0.00;;;;;;;;;;5117460;27;20051;-79
2023/08/25 04:28:27;;;;;;;0.00;0.00;;;;;;;;;;5135401;27;20046;-80
2023/08/25 04:30:55;;;;;;;0.00;0.00;;;;;;;;;;5135103;27;20113;-80
2023/08/25 04:33:21;;;;;;;0.17;0.00;;;;;;;;;;5134338;27;20025;-80
2023/08/25 04:35:46;;;;;;;0.00;0.00;;;;;;;;;;5134296;27;20023;-80
2023/08/25 04:38:12;;;;;;;0.00;0.00;;;;;;;;;;5100358;27;20043;-80
2023/08/25 04:40:37;;;;;;;0.00;0.00;;;;;;;;;;5134289;27;20023;-80
2023/08/25 04:43:04;;;;;;;0.00;0.00;;;;;;;;;;5134231;27;20436;-81
2023/08/25 04:45:29;;;;;;;0.03;0.00;;;;;;;;;;5135332;27;20027;-81
2023/08/25 04:47:56;;;;;;;0.00;0.00;;;;;;;;;;5134374;27;20035;-80
2023/08/25 04:50:21;;;;;;;0.00;0.00;;;;;;;;;;5100280;27;20380;-80
2023/08/25 04:52:47;;;;;;;0.00;0.00;;;;;;;;;;5134238;27;20035;-80
2023/08/25 04:55:12;;;;;;;0.00;0.00;;;;;;;;;;5134216;27;20035;-80
2023/08/25 04:57:39;;;;;;;0.00;0.00;;;;;;;;;;5135185;27;20031;-80
2023/08/25 05:00:05;;;;;;;0.00;0.00;;;;;;;;;;5116978;28;20030;-80
2023/08/25 05:02:31;;;;;;;0.00;0.00;;;;;;;;;;5134113;27;20042;-82
2023/08/25 05:04:56;;;;;;;0.00;0.00;;;;;;;;;;5133696;28;20023;-81
2023/08/25 05:07:22;;;;;;;0.00;0.00;;;;;;;;;;5135011;27;20061;-79
2023/08/25 05:09:47;;;;;;;0.00;0.00;;;;;;;;;;5135075;27;20027;-81
2023/08/25 05:12:12;;;;;;;0.00;0.00;;;;;;;;;;5134081;28;20027;-82
2023/08/25 05:14:38;;;;;;;0.00;0.00;;;;;;;;;;5133909;28;20612;-82
2023/08/25 05:17:05;;;;;;;0.00;0.00;;;;;;;;;;5117005;28;20031;-82
2023/08/25 05:19:30;;;;;;;0.00;0.00;;;;;;;;;;5133914;28;20114;-81
2023/08/25 05:21:56;;;;;;;0.00;0.00;;;;;;;;;;5133691;28;20126;-80
2023/08/25 05:24:25;;;;;;;0.00;0.00;;;;;;;;;;5133827;28;20051;-81
2023/08/25 05:26:53;;;;;;;0.00;0.00;;;;;;;;;;5117139;28;20035;-81
2023/08/25 05:29:19;;;;;;;0.00;0.00;;;;;;;;;;5133708;28;20524;-80
2023/08/25 05:31:45;;;;;;;0.00;0.00;;;;;;;;;;5135010;27;20023;-80
2023/08/25 05:34:10;;;;;;;0.00;0.00;;;;;;;;;;5133864;28;20023;-82
2023/08/25 05:36:35;;;;;;;0.00;0.00;;;;;;;;;;5133536;28;20127;-81
2023/08/25 05:39:01;;;;;;;0.00;0.00;;;;;;;;;;5116557;28;20031;-81
2023/08/25 05:41:27;;;;;;;0.00;0.00;;;;;;;;;;5133634;28;20031;-82
2023/08/25 05:43:52;;;;;;;0.00;0.00;;;;;;;;;;5150824;27;20416;-81
2023/08/25 05:46:18;;;;;;;0.00;0.00;;;;;;;;;;5116723;28;20026;-81
2023/08/25 05:48:43;;;;;;;0.00;0.00;;;;;;;;;;5133588;27;20027;-80
2023/08/25 05:51:08;;;;;;;0.00;0.00;;;;;;;;;;5116539;28;20030;-79
2023/08/25 05:53:34;;;;;;;0.00;0.00;;;;;;;;;;5133624;28;20452;-82
2023/08/25 05:55:59;;;;;;;0.00;0.00;;;;;;;;;;5116410;28;20076;-82
2023/08/25 05:58:25;;;;;;;0.00;0.00;;;;;;;;;;5133739;27;20028;-82
2023/08/25 06:00:50;;;;;;;0.00;0.00;;;;;;;;;;5138378;27;20023;-82
2023/08/25 06:03:19;;;;;;;0.00;0.00;;;;;;;;;;5137241;27;20477;-81
2023/08/25 06:05:46;;;;;;;0.00;0.00;;;;;;;;;;5138523;27;20027;-82
2023/08/25 06:08:12;;;;;;;0.00;0.00;;;;;;;;;;5120367;27;20110;-81
2023/08/25 06:10:37;;;;;;;0.00;0.00;;;;;;;;;;5137192;27;20059;-81
2023/08/25 06:13:03;;;;;;;0.00;0.00;;;;;;;;;;5137162;27;20109;-82
2023/08/25 06:15:29;;;;;;;0.00;0.00;;;;;;;;;;5120014;27;20440;-81
2023/08/25 06:17:54;;;;;;;0.10;0.10;;;;;;;;;;5154352;27;20436;-80
2023/08/25 06:20:21;;;;;;;0.00;0.00;;;;;;;;;;5154413;27;20019;-80
2023/08/25 06:22:46;;;;;;;0.08;0.08;;;;;;;;;;5136711;27;20084;-80
2023/08/25 06:25:12;;;;;;;0.10;0.10;;;;;;;;;;5138015;27;20065;-80
2023/08/25 06:27:38;;;;;;;0.00;0.00;;;;;;;;;;5119424;27;20126;-80
2023/08/25 06:30:03;;;;;;;0.10;0.10;;;;;;;;;;5137226;27;20031;-81
2023/08/25 06:32:29;;;;;;;0.00;0.00;;;;;;;;;;5136383;27;20175;-80
2023/08/25 06:34:56;;;;;;;0.00;0.00;;;;;;;;;;5119571;27;20412;-81
2023/08/25 06:37:22;;;;;;;0.10;0.10;;;;;;;;;;5137962;27;20023;-81
2023/08/25 06:39:48;;;;;;;0.10;0.10;;;;;;;;;;5136599;27;20019;-82
2023/08/25 06:42:13;;;;;;;0.00;0.00;;;;;;;;;;5136687;27;20133;-81
2023/08/25 06:44:40;;;;;;;0.10;0.10;;;;;;;;;;5136475;27;20027;-81
2023/08/25 06:47:05;;;;;;;0.10;0.10;;;;;;;;;;5119180;27;20459;-81
2023/08/25 06:49:31;;;;;;;0.10;0.10;;;;;;;;;;5119405;27;20023;-81
2023/08/25 06:51:56;;;;;;;0.00;0.00;;;;;;;;;;5136305;27;20039;-81
2023/08/25 06:54:24;;;;;;;0.10;0.10;;;;;;;;;;5137484;27;20023;-81
2023/08/25 06:56:50;;;;;;;0.10;0.10;;;;;;;;;;5137978;27;20121;-81
2023/08/25 06:59:15;;;;;;;0.10;0.10;;;;;;;;;;5119212;27;20042;-81
2023/08/25 07:01:41;;;;;;;0.10;0.10;;;;;;;;;;5136579;27;20039;-80
2023/08/25 07:04:06;;;;;;;0.10;0.10;;;;;;;;;;5137165;27;20019;-81
2023/08/25 07:06:31;;;;;;;0.10;0.10;;;;;;;;;;5137190;27;20030;-81
2023/08/25 07:08:57;;;;;;;0.10;0.10;;;;;;;;;;5137672;27;20041;-81
2023/08/25 07:11:24;;;;;;;0.10;0.10;;;;;;;;;;5136041;27;20417;-81
2023/08/25 07:13:49;;;;;;;0.10;0.10;;;;;;;;;;5136979;27;20050;-81
2023/08/25 07:16:14;;;;;;;0.10;0.10;;;;;;;;;;5136626;27;20432;-80
2023/08/25 07:18:40;;;;;;;0.10;0.10;;;;;;;;;;5135993;27;20031;-81
2023/08/25 07:21:06;;;;;;;0.10;0.10;;;;;;;;;;5118513;27;20050;-81
2023/08/25 07:23:31;;;;;;;0.10;0.10;;;;;;;;;;5118658;27;20027;-82
2023/08/25 07:25:57;;;;;;;0.10;0.10;;;;;;;;;;5136772;27;20023;-81
2023/08/25 07:28:22;;;;;;;0.10;0.10;;;;;;;;;;5135384;27;20179;-81
2023/08/25 07:30:50;;;;;;;0.20;0.20;;;;;;;;;;5136700;27;20065;-81
2023/08/25 07:33:15;;;;;;;0.10;0.10;;;;;;;;;;5118678;27;20531;-81
2023/08/25 07:35:41;;;;;;;0.10;0.10;;;;;;;;;;5136608;27;20059;-81
2023/08/25 07:38:07;;;;;;;0.10;0.10;;;;;;;;;;5118168;27;20109;-81
2023/08/25 07:40:32;;;;;;;0.10;0.10;;;;;;;;;;5135444;27;20035;-81
2023/08/25 07:43:01;;;;;;;0.10;0.10;;;;;;;;;;5118041;27;20134;-81
2023/08/25 07:45:28;;;;;;;0.20;0.20;;;;;;;;;;5136296;27;20119;-81
2023/08/25 07:47:55;;;;;;;0.22;0.22;;;;;;;;;;5118449;27;20671;-81
2023/08/25 07:50:21;;;;;;;0.20;0.20;;;;;;;;;;5136377;27;20043;-81
2023/08/25 07:52:47;;;;;;;0.10;0.10;;;;;;;;;;5135009;27;20416;-80
2023/08/25 07:55:12;;;;;;;0.15;0.15;;;;;;;;;;5135237;27;20066;-81
2023/08/25 07:57:38;;;;;;;0.10;0.10;;;;;;;;;;5136224;27;20027;-81
2023/08/25 08:00:09;;;;;;;0.20;0.20;;;;;;;;;;5134660;27;20031;-80
2023/08/25 08:02:35;;;;;;;0.10;0.10;;;;;;;;;;5118895;27;20037;-82
2023/08/25 08:05:01;;;;;;;0.13;0.13;;;;;;;;;;5118424;27;20031;-81
2023/08/25 08:07:26;;;;;;;0.20;0.20;;;;;;;;;;5100946;27;20096;-82
2023/08/25 08:09:52;;;;;;;0.17;0.17;;;;;;;;;;5117740;27;20146;-80
2023/08/25 08:12:17;;;;;;;0.10;0.10;;;;;;;;;;5117523;27;20121;-81
2023/08/25 08:14:42;;;;;;;0.20;0.20;;;;;;;;;;5134420;27;20750;-81
2023/08/25 08:17:08;;;;;;;0.20;0.20;;;;;;;;;;5135785;27;20457;-81
2023/08/25 08:19:34;;;;;;;0.20;0.20;;;;;;;;;;5117723;27;20027;-80
2023/08/25 08:22:00;;;;;;;0.10;0.10;;;;;;;;;;5134672;27;20390;-81
2023/08/25 08:24:26;;;;;;;0.10;0.10;;;;;;;;;;5117427;27;20029;-81
2023/08/25 08:26:51;;;;;;;0.10;0.10;;;;;;;;;;5151876;27;20129;-81
2023/08/25 08:29:17;;;;;;;0.20;0.20;;;;;;;;;;5135059;27;20130;-80
2023/08/25 08:31:42;;;;;;;0.10;0.10;;;;;;;;;;5135454;27;20125;-80
2023/08/25 08:34:08;;;;;;;0.10;0.10;;;;;;;;;;5135492;27;20080;-80
2023/08/25 08:36:33;;;;;;;0.15;0.15;;;;;;;;;;5117073;27;20079;-80
2023/08/25 08:39:02;;;;;;;0.10;0.10;;;;;;;;;;5134258;27;20033;-81
2023/08/25 08:41:28;;;;;;;0.20;0.20;;;;;;;;;;5134266;27;20027;-81
2023/08/25 08:43:54;;;;;;;0.10;0.10;;;;;;;;;;5134285;27;20353;-82
2023/08/25 08:46:19;;;;;;;0.10;0.10;;;;;;;;;;5134183;27;20029;-80
2023/08/25 08:48:44;;;;;;;0.10;0.10;;;;;;;;;;5116852;27;20123;-80
2023/08/25 08:51:10;;;;;;;0.10;0.10;;;;;;;;;;5116863;27;20027;-81
2023/08/25 08:53:36;;;;;;;0.10;0.10;;;;;;;;;;5135256;27;20405;-81
2023/08/25 08:56:01;;;;;;;0.10;0.10;;;;;;;;;;5135137;27;20360;-81
2023/08/25 08:58:27;;;;;;;0.10;0.10;;;;;;;;;;5116596;27;20042;-81
2023/08/25 09:00:53;;;;;;;0.10;0.10;;;;;;;;;;5133925;27;20077;-80
2023/08/25 09:03:19;;;;;;;0.10;0.10;;;;;;;;;;5116824;28;20031;-80
2023/08/25 09:05:45;;;;;;;0.10;0.10;;;;;;;;;;5117115;28;20027;-81
2023/08/25 09:08:10;;;;;;;0.10;0.10;;;;;;;;;;5116673;28;20049;-80
2023/08/25 09:10:36;;;;;;;0.10;0.10;;;;;;;;;;5133915;28;20031;-81
2023/08/25 09:13:01;;;;;;;0.10;0.10;;;;;;;;;;5116550;28;20035;-80
2023/08/25 09:15:28;;;;;;;0.13;0.13;;;;;;;;;;5116694;28;20027;-80
2023/08/25 09:18:07;;;;;;;0.10;0.10;;;;;;;;;;5135004;27;20023;-80
2023/08/25 09:20:34;;;;;;;0.10;0.10;;;;;;;;;;5133649;27;20301;-80
2023/08/25 09:23:00;;;;;;;0.00;0.00;;;;;;;;;;5119393;28;20103;-79
2023/08/25 09:25:26;;;;;;;0.00;0.00;;;;;;;;;;5120758;28;20023;-80
2023/08/25 09:28:03;;;;;;;0.00;0.00;;;;;;;;;;5133279;27;20482;-80
2023/08/25 09:30:41;;;;;;;0.00;0.00;;;;;;;;;;5122613;28;20031;-80
2023/08/25 09:33:08;;;;;;;0.03;0.03;;;;;;;;;;5140037;27;20041;-80
2023/08/25 09:35:34;;;;;;;0.10;0.10;;;;;;;;;;5144974;27;20031;-79
2023/08/25 09:38:01;;;;;;;0.08;0.08;;;;;;;;;;5147932;27;20029;-79
2023/08/25 09:40:29;;;;;;;0.10;0.10;;;;;;;;;;5139338;27;20031;-80
2023/08/25 09:42:59;;;;;;;0.10;0.10;;;;;;;;;;5138590;27;20042;-80
2023/08/25 09:45:31;;;;;;;0.10;0.10;;;;;;;;;;5137518;27;20452;-80
2023/08/25 09:48:10;;;;;;;0.10;0.10;;;;;;;;;;5138579;27;20031;-79
2023/08/25 09:50:40;;;;;;;0.10;0.10;;;;;;;;;;5137275;27;20514;-81
2023/08/25 09:53:06;;;;;;;0.10;0.10;;;;;;;;;;5120797;27;20348;-81
2023/08/25 09:55:34;;;;;;;0.10;0.10;;;;;;;;;;5137000;27;20023;-80
2023/08/25 09:57:59;;;;;;;0.10;0.10;;;;;;;;;;5137224;27;20019;-80
2023/08/25 10:00:24;;;;;;;0.00;0.00;;;;;;;;;;5137148;27;20352;-80
2023/08/25 10:02:50;;;;;;;0.10;0.10;;;;;;;;;;5137119;27;20113;-80
2023/08/25 10:05:15;;;;;;;0.00;0.00;;;;;;;;;;5120037;27;20039;-80
2023/08/25 10:07:41;;;;;;;0.00;0.00;;;;;;;;;;5137011;27;20027;-80
2023/08/25 10:10:07;;;;;;;0.00;0.00;;;;;;;;;;5137316;27;20031;-80
2023/08/25 10:12:34;;;;;;;0.00;0.00;;;;;;;;;;5137919;27;20396;-80
2023/08/25 10:15:00;;;;;;;0.00;0.00;;;;;;;;;;5136800;27;20444;-81
2023/08/25 10:17:25;;;;;;;0.00;0.00;;;;;;;;;;5136741;27;20030;-80
2023/08/25 10:19:51;;;;;;;0.00;0.00;;;;;;;;;;5119835;27;20029;-81
2023/08/25 10:22:16;;;;;;;0.00;0.00;;;;;;;;;;5136891;27;20463;-80
2023/08/25 10:24:42;;;;;;;0.00;0.00;;;;;;;;;;5119115;27;20023;-80
2023/08/25 10:27:07;;;;;;;0.00;0.00;;;;;;;;;;5136607;27;20031;-80
2023/08/25 10:29:33;;;;;;;0.00;0.00;;;;;;;;;;5119804;27;20043;-80
2023/08/25 10:32:02;;;;;;;0.00;0.00;;;;;;;;;;5120206;27;20126;-81
2023/08/25 10:34:43;;;;;;;0.00;0.00;;;;;;;;;;5138262;27;20461;-80
2023/08/25 10:37:10;;;;;;;0.00;0.00;;;;;;;;;;5120516;27;20055;-80
2023/08/25 10:39:45;;;;;;;0.00;0.00;;;;;;;;;;5136351;27;20046;-80
2023/08/25 10:42:11;;;;;;;0.00;0.00;;;;;;;;;;5136879;27;20031;-80
2023/08/25 10:44:42;;;;;;;0.00;0.00;;;;;;;;;;5136385;27;20452;-81
2023/08/25 10:47:08;;;;;;;0.00;0.00;;;;;;;;;;5136255;27;20052;-81
2023/08/25 10:49:38;;;;;;;0.00;0.00;;;;;;;;;;5119234;27;20110;-80
2023/08/25 10:52:16;;;;;;;0.00;0.00;;;;;;;;;;5136205;27;20371;-80
2023/08/25 10:54:44;;;;;;;0.00;0.00;;;;;;;;;;5136103;27;20383;-81
2023/08/25 10:57:25;;;;;;;0.00;0.00;;;;;;;;;;5136098;27;20028;-81
2023/08/25 10:59:54;;;;;;;0.00;0.00;;;;;;;;;;5137395;27;20023;-81
2023/08/25 11:02:35;;;;;;;0.00;0.00;;;;;;;;;;5119537;27;20022;-81
2023/08/25 11:05:37;;;;;;;0.00;0.00;;;;;;;;;;5137494;27;20035;-81
2023/08/25 11:08:04;;;;;;;0.00;0.00;;;;;;;;;;5136739;27;20106;-81
2023/08/25 11:10:34;;;;;;;0.00;0.00;;;;;;;;;;5119125;27;20031;-81
2023/08/25 11:12:59;;;;;;;0.00;0.00;;;;;;;;;;5137156;27;20114;-81
2023/08/25 11:15:25;;;;;;;0.00;0.00;;;;;;;;;;5118613;27;20511;-80
2023/08/25 11:17:51;;;;;;;0.00;0.00;;;;;;;;;;5135640;27;20023;-82
2023/08/25 11:20:16;;;;;;;0.00;0.00;;;;;;;;;;5135773;27;20104;-80
2023/08/25 11:22:55;;;;;;;0.00;0.00;;;;;;;;;;5135205;27;20046;-80
2023/08/25 11:25:20;;;;;;;0.00;0.00;;;;;;;;;;5102053;27;20388;-80
2023/08/25 11:27:49;;;;;;;0.00;0.00;;;;;;;;;;5118168;27;20047;-80
2023/08/25 11:30:15;;;;;;;0.00;0.00;;;;;;;;;;5137079;27;20053;-80
2023/08/25 11:32:40;;;;;;;0.00;0.00;;;;;;;;;;5135096;27;20089;-79
2023/08/25 11:35:06;;;;;;;0.00;0.00;;;;;;;;;;5135467;27;20032;-80
2023/08/25 11:37:32;;;;;;;0.00;0.00;;;;;;;;;;5136795;27;20058;-81
2023/08/25 11:39:57;;;;;;;0.00;0.00;;;;;;;;;;5135395;27;20031;-80
2023/08/25 11:42:23;;;;;;;0.00;0.00;;;;;;;;;;5136282;27;20030;-80
2023/08/25 11:44:50;;;;;;;0.00;0.00;;;;;;;;;;5135076;27;20023;-81
2023/08/25 11:47:16;;;;;;;0.00;0.00;;;;;;;;;;5101354;27;20117;-80
2023/08/25 11:49:41;;;;;;;0.00;0.00;;;;;;;;;;5135235;27;20023;-80
2023/08/25 11:52:07;;;;;;;0.00;0.00;;;;;;;;;;5117666;27;20087;-80
2023/08/25 11:54:44;;;;;;;0.00;0.00;;;;;;;;;;5117864;27;20028;-80
2023/08/25 11:57:09;;;;;;;0.00;0.00;;;;;;;;;;5117588;27;20023;-80
2023/08/25 11:59:35;;;;;;;0.00;0.00;;;;;;;;;;5117915;27;20045;-81
2023/08/25 12:02:01;;;;;;;0.00;0.00;;;;;;;;;;5117546;27;20368;-81
2023/08/25 12:04:26;;;;;;;0.00;0.00;;;;;;;;;;5134855;27;20449;-81
2023/08/25 12:06:57;;;;;;;0.00;0.00;;;;;;;;;;5134717;27;20023;-80
2023/08/25 12:09:23;;;;;;;0.00;0.00;;;;;;;;;;5118255;27;20436;-81
2023/08/25 12:11:49;;;;;;;0.00;0.00;;;;;;;;;;5134422;27;20440;-81
2023/08/25 12:14:28;;;;;;;0.00;0.00;;;;;;;;;;5134628;27;20472;-80
2023/08/25 12:16:54;;;;;;;0.00;0.00;;;;;;;;;;5136033;27;20515;-81
2023/08/25 12:19:23;;;;;;;0.00;0.00;;;;;;;;;;5117799;27;20039;-81
2023/08/25 12:21:55;;;;;;;0.00;0.00;;;;;;;;;;5117320;27;20587;-81
2023/08/25 12:24:20;;;;;;;0.00;0.00;;;;;;;;;;5135958;27;20035;-82
2023/08/25 12:26:46;;;;;;;0.00;0.00;;;;;;;;;;5117333;27;20508;-80
2023/08/25 12:29:11;;;;;;;0.00;0.00;;;;;;;;;;5117253;27;20476;-81
2023/08/25 12:31:37;;;;;;;0.00;0.00;;;;;;;;;;5135418;27;20035;-80
2023/08/25 12:34:03;;;;;;;0.00;0.00;;;;;;;;;;5135265;27;20054;-79
2023/08/25 12:36:28;;;;;;;0.00;0.00;;;;;;;;;;5135716;27;20440;-81
2023/08/25 12:38:54;;;;;;;0.00;0.00;;;;;;;;;;5134182;27;20031;-80
2023/08/25 12:41:19;;;;;;;0.00;0.00;;;;;;;;;;5116877;27;20034;-81
2023/08/25 12:43:45;;;;;;;0.00;0.00;;;;;;;;;;5134073;27;20460;-81
2023/08/25 12:46:10;;;;;;;0.00;0.00;;;;;;;;;;5134424;27;20428;-82
2023/08/25 12:48:35;;;;;;;0.00;0.00;;;;;;;;;;5133800;27;20023;-82
2023/08/25 12:51:01;;;;;;;0.00;0.00;;;;;;;;;;5116990;27;20030;-82
2023/08/25 12:53:26;;;;;;;0.00;0.00;;;;;;;;;;5133919;27;20026;-79
2023/08/25 12:55:53;;;;;;;0.00;0.00;;;;;;;;;;5133859;27;20444;-82
2023/08/25 12:58:18;;;;;;;0.00;0.00;;;;;;;;;;5117203;27;20019;-80
2023/08/25 13:00:44;;;;;;;0.00;0.00;;;;;;;;;;5133708;27;20026;-81
2023/08/25 13:03:09;;;;;;;0.00;0.00;;;;;;;;;;5133600;27;20037;-81
2023/08/25 13:05:35;;;;;;;0.00;0.00;;;;;;;;;;5135125;27;20023;-81
2023/08/25 13:08:00;;;;;;;0.00;0.00;;;;;;;;;;5133561;27;20105;-81
2023/08/25 13:10:26;;;;;;;0.00;0.00;;;;;;;;;;5134407;27;20114;-80
2023/08/25 13:12:52;;;;;;;0.00;0.00;;;;;;;;;;5116555;28;20039;-80
2023/08/25 13:15:17;;;;;;;0.00;0.00;;;;;;;;;;5116689;28;20104;-80
2023/08/25 13:17:44;;;;;;;0.00;0.00;;;;;;;;;;5133712;28;20049;-79
2023/08/25 13:20:10;;;;;;;0.00;0.00;;;;;;;;;;5134882;27;20047;-80
2023/08/25 13:22:36;;;;;;;0.00;0.00;;;;;;;;;;5133585;27;20092;-80
2023/08/25 13:25:01;;;;;;;0.00;0.00;;;;;;;;;;5133603;28;20027;-80
2023/08/25 13:27:27;;;;;;;0.00;0.00;;;;;;;;;;5135115;27;20114;-80
2023/08/25 13:29:53;;;;;;;0.00;0.00;;;;;;;;;;5134805;27;20119;-80
2023/08/25 13:32:18;;;;;;;0.00;0.00;;;;;;;;;;5133112;28;20031;-79
2023/08/25 13:34:43;;;;;;;0.00;0.00;;;;;;;;;;5133721;28;20436;-80
2023/08/25 13:37:09;;;;;;;0.00;0.00;;;;;;;;;;5134005;28;20027;-80
2023/08/25 13:39:38;;;;;;;0.00;0.00;;;;;;;;;;5134597;27;20349;-80
2023/08/25 13:42:06;;;;;;;0.00;0.00;;;;;;;;;;5134787;27;20031;-80
2023/08/25 13:44:32;;;;;;;0.00;0.00;;;;;;;;;;5116456;28;20042;-80
2023/08/25 13:46:57;;;;;;;0.00;0.00;;;;;;;;;;5134273;27;20023;-80
2023/08/25 13:49:23;;;;;;;0.00;0.00;;;;;;;;;;5133570;28;20403;-80
2023/08/25 13:51:48;;;;;;;0.00;0.00;;;;;;;;;;5134710;27;20035;-80
2023/08/25 13:54:14;;;;;;;0.00;0.00;;;;;;;;;;5116218;28;20380;-80
2023/08/25 13:56:39;;;;;;;0.00;0.00;;;;;;;;;;5134726;27;20023;-79
2023/08/25 13:59:05;;;;;;;0.00;0.00;;;;;;;;;;5134921;27;20023;-80
2023/08/25 14:01:30;;;;;;;0.00;0.00;;;;;;;;;;5133676;28;20103;-80
2023/08/25 14:03:56;;;;;;;0.00;0.00;;;;;;;;;;5116193;28;20456;-80
2023/08/25 14:06:22;;;;;;;0.00;0.00;;;;;;;;;;5134374;27;20049;-81
2023/08/25 14:08:47;;;;;;;0.00;0.00;;;;;;;;;;5116457;28;20039;-81
2023/08/25 14:11:13;;;;;;;0.00;0.00;;;;;;;;;;5134438;27;20058;-80
2023/08/25 14:13:39;;;;;;;0.00;0.00;;;;;;;;;;5150444;27;20031;-80
2023/08/25 14:16:04;;;;;;;0.00;0.00;;;;;;;;;;5132986;28;20067;-79
2023/08/25 14:18:29;;;;;;;0.00;0.00;;;;;;;;;;5132966;28;20131;-80
2023/08/25 14:20:57;;;;;;;0.00;0.00;;;;;;;;;;5118026;27;20034;-80
2023/08/25 14:23:22;;;;;;;0.00;0.00;;;;;;;;;;5138097;27;20498;-81
2023/08/25 14:25:48;;;;;;;0.00;0.00;;;;;;;;;;5136886;27;20031;-80
2023/08/25 14:28:14;;;;;;;0.00;0.00;;;;;;;;;;5137731;27;20116;-80
2023/08/25 14:30:39;;;;;;;0.00;0.00;;;;;;;;;;5137646;27;20033;-81
2023/08/25 14:33:04;;;;;;;0.00;0.00;;;;;;;;;;5136471;27;20047;-80
2023/08/25 14:35:30;;;;;;;0.00;0.00;;;;;;;;;;5138094;27;20027;-80
2023/08/25 14:37:55;;;;;;;0.00;0.00;;;;;;;;;;5136773;27;20066;-80
2023/08/25 14:40:21;;;;;;;0.00;0.00;;;;;;;;;;5136555;27;20033;-80